Time;durP1;ratioP1;P1;durP2;ratioP2;P2;SDS_P1;SDS_P2;PMS_P1;PMS_P2;Temp;Humidity;BMP_temperature;BMP_pressure;BME280_temperature;BME280_humidity;BME280_pressure;Samples;Min_cycle;Max_cycle;Signal;HPM_P1;HPM_P2
2022/09/28 00:01:20;;;;;;;1.15;0.70;;;8.20;99.90;;;7.48;100.00;95582.19;5049008;28;20044;-43
2022/09/28 00:03:48;;;;;;;1.48;0.63;;;8.20;99.90;;;7.52;100.00;95580.25;5052033;28;20265;-41
2022/09/28 00:06:18;;;;;;;3.33;0.95;;;8.20;99.90;;;7.53;100.00;95574.09;5040931;28;20109;-46
2022/09/28 00:08:44;;;;;;;1.67;0.80;;;8.20;99.90;;;7.55;100.00;95572.22;5057442;28;20159;-45
2022/09/28 00:11:14;;;;;;;0.50;0.50;;;8.20;99.90;;;7.55;100.00;95557.31;5052387;28;20036;-47
2022/09/28 00:13:41;;;;;;;2.42;0.77;;;8.20;99.90;;;7.57;100.00;95557.25;5061414;28;20499;-46
2022/09/28 00:16:15;;;;;;;1.52;0.55;;;8.20;99.90;;;7.60;100.00;95557.94;5067424;27;20028;-43
2022/09/28 00:18:41;;;;;;;0.73;0.60;;;8.20;99.90;;;7.61;100.00;95548.31;5069812;27;20559;-43
2022/09/28 00:21:11;;;;;;;1.48;0.60;;;8.20;99.90;;;7.63;100.00;95543.81;5053856;28;20036;-43
2022/09/28 00:24:11;;;;;;;1.20;0.60;;;8.20;99.90;;;7.60;100.00;95538.72;5048804;28;21940;-45
2022/09/28 00:26:30;;;;;;;0.90;0.70;;;8.30;99.90;;;7.61;100.00;95533.41;5056983;28;20378;-43
2022/09/28 00:28:59;;;;;;;1.65;0.80;;;8.30;99.90;;;7.62;100.00;95524.59;5056630;28;20078;-44
2022/09/28 00:31:31;;;;;;;2.13;0.80;;;8.30;99.90;;;7.64;100.00;95528.00;5061056;28;20490;-44
2022/09/28 00:33:59;;;;;;;0.95;0.70;;;8.30;99.90;;;7.64;100.00;95516.63;5056023;28;20040;-43
2022/09/28 00:36:27;;;;;;;2.65;0.70;;;8.30;99.90;;;7.65;100.00;95511.31;5063988;28;20094;-43
2022/09/28 00:38:55;;;;;;;0.95;0.55;;;8.30;99.90;;;7.63;100.00;95502.69;5058807;28;20066;-43
2022/09/28 00:41:25;;;;;;;2.63;0.70;;;8.30;99.90;;;7.63;100.00;95500.06;5062474;28;20032;-43
2022/09/28 00:43:53;;;;;;;1.40;0.68;;;8.30;99.90;;;7.63;100.00;95492.19;5057843;28;20624;-42
2022/09/28 00:46:32;;;;;;;0.50;0.50;;;8.30;99.90;;;7.60;100.00;95479.22;5055097;28;20040;-42
2022/09/28 00:49:06;;;;;;;2.67;0.70;;;8.30;99.90;;;7.67;100.00;95482.38;5056373;28;20048;-43
2022/09/28 00:51:37;;;;;;;1.23;0.70;;;8.30;99.90;;;7.67;100.00;95482.38;5055506;28;20028;-42
2022/09/28 00:54:06;;;;;;;2.20;0.93;;;8.30;99.90;;;7.70;100.00;95473.47;5058578;28;20023;-43
2022/09/28 00:56:35;;;;;;;3.13;0.68;;;8.30;99.90;;;7.72;100.00;95459.34;5059865;28;20474;-45
2022/09/28 00:59:03;;;;;;;1.60;0.68;;;8.40;99.90;;;7.73;100.00;95453.16;5052938;28;20112;-43
2022/09/28 01:01:29;;;;;;;0.93;0.70;;;8.40;99.90;;;7.75;100.00;95458.31;5046875;28;20690;-43
2022/09/28 01:03:57;;;;;;;0.98;0.55;;;8.40;99.90;;;7.70;100.00;95442.84;5043499;28;20050;-43
2022/09/28 01:06:29;;;;;;;1.30;0.68;;;8.40;99.90;;;7.81;100.00;95442.25;5042047;28;20063;-44
2022/09/28 01:08:59;;;;;;;0.75;0.60;;;8.40;99.90;;;7.80;100.00;95443.16;5052530;28;20988;-43
2022/09/28 01:11:26;;;;;;;0.70;0.50;;;8.40;99.90;;;7.73;100.00;95411.16;5055462;28;20027;-44
2022/09/28 01:13:54;;;;;;;1.52;0.70;;;8.40;99.90;;;7.81;100.00;95423.88;5056255;28;20032;-44
2022/09/28 01:16:39;;;;;;;1.67;1.05;;;8.40;99.90;;;7.80;100.00;95422.16;5051173;28;20060;-44
2022/09/28 01:19:16;;;;;;;1.52;0.60;;;8.40;99.90;;;7.82;100.00;95418.53;5059975;28;21626;-43
2022/09/28 01:22:15;;;;;;;1.00;0.50;;;8.50;99.90;;;7.85;100.00;95412.25;5051919;28;20149;-43
2022/09/28 01:25:06;;;;;;;1.60;0.50;;;8.50;99.90;;;7.88;100.00;95412.09;5055474;28;20114;-43
2022/09/28 01:27:57;;;;;;;1.77;0.68;;;8.50;99.90;;;7.92;100.00;95402.25;5067350;28;20036;-43
2022/09/28 01:30:23;;;;;;;0.85;0.60;;;8.50;99.90;;;7.96;100.00;95401.13;5050483;28;20069;-43
2022/09/28 01:33:07;;;;;;;0.63;0.50;;;8.60;99.90;;;7.81;100.00;95368.78;5048788;28;20458;-43
2022/09/28 01:35:48;;;;;;;1.65;0.60;;;8.60;99.90;;;7.97;100.00;95387.94;5059444;28;20609;-42
2022/09/28 01:38:20;;;;;;;2.50;0.75;;;8.60;99.90;;;8.00;100.00;95386.88;5061012;22;20255;-44
2022/09/28 01:40:47;;;;;;;5.93;0.85;;;8.60;99.90;;;7.99;100.00;95379.97;5019081;28;20032;-46
2022/09/28 01:43:23;;;;;;;2.88;0.75;;;8.60;99.90;;;8.00;100.00;95376.38;5040032;28;20885;-46
2022/09/28 01:46:04;;;;;;;0.73;0.47;;;8.60;99.90;;;8.06;100.00;95369.94;5022731;28;20314;-45
2022/09/28 01:48:45;;;;;;;3.53;0.77;;;8.70;99.90;;;8.11;100.00;95371.38;5006317;28;20033;-45
2022/09/28 01:51:20;;;;;;;6.18;0.90;;;8.70;99.90;;;8.08;100.00;95363.66;4993135;28;20052;-46
2022/09/28 01:53:52;;;;;;;3.17;0.80;;;8.70;99.90;;;8.17;100.00;95360.50;4995767;28;20099;-44
2022/09/28 01:56:31;;;;;;;4.43;0.90;;;8.70;99.90;;;8.16;100.00;95361.41;4992385;28;20033;-46
2022/09/28 01:59:02;;;;;;;3.83;0.75;;;8.80;99.90;;;8.18;100.00;95349.06;5000400;28;20037;-45
2022/09/28 02:01:40;;;;;;;2.22;0.85;;;8.80;99.90;;;8.22;100.00;95347.94;4995803;28;20080;-43
2022/09/28 02:04:13;;;;;;;3.47;0.70;;;8.80;99.90;;;8.25;100.00;95351.31;4991209;28;20061;-45
2022/09/28 02:06:56;;;;;;;5.00;0.80;;;8.90;99.90;;;8.24;100.00;95342.59;4993311;28;20029;-45
2022/09/28 02:09:28;;;;;;;3.47;1.10;;;8.90;99.90;;;8.28;100.00;95338.00;5003704;28;20244;-43
2022/09/28 02:11:59;;;;;;;5.95;0.90;;;8.90;99.90;;;8.32;100.00;95336.88;4999478;28;20507;-43
2022/09/28 02:14:27;;;;;;;6.13;1.35;;;8.90;99.90;;;8.36;100.00;95333.09;4998214;28;20297;-45
2022/09/28 02:16:54;;;;;;;2.50;0.68;;;9.00;99.90;;;8.32;100.00;95324.56;4993466;28;20075;-45
2022/09/28 02:19:24;;;;;;;3.88;0.82;;;9.00;99.90;;;8.30;100.00;95318.56;5003562;28;20041;-45
2022/09/28 02:22:32;;;;;;;2.03;0.80;;;8.90;99.90;;;8.29;100.00;95324.78;5000169;28;20033;-46
2022/09/28 02:25:08;;;;;;;2.85;0.93;;;8.90;99.90;;;8.30;100.00;95321.19;5006352;28;20057;-43
2022/09/28 02:27:44;;;;;;;3.50;1.08;;;8.90;99.90;;;8.35;100.00;95316.50;4992490;28;20072;-43
2022/09/28 02:30:10;;;;;;;6.28;1.27;;;8.90;99.90;;;8.33;100.00;95309.69;4994589;28;20133;-46
2022/09/28 02:32:41;;;;;;;3.17;1.08;;;9.00;99.90;;;8.43;100.00;95302.94;4993925;28;20414;-43
2022/09/28 02:35:13;;;;;;;3.97;0.82;;;9.00;99.90;;;8.43;100.00;95316.06;4985481;28;20091;-46
2022/09/28 02:37:40;;;;;;;4.03;0.75;;;9.10;99.90;;;8.43;100.00;95310.81;4997147;28;20091;-46
2022/09/28 02:40:18;;;;;;;5.22;0.82;;;9.00;99.90;;;8.41;100.00;95295.09;5001363;28;20082;-46
2022/09/28 02:42:55;;;;;;;1.67;0.77;;;9.10;99.90;;;8.46;100.00;95302.75;4996565;28;20953;-44
2022/09/28 02:45:36;;;;;;;3.20;1.10;;;9.10;99.90;;;8.50;100.00;95306.88;4994469;28;20046;-42
2022/09/28 02:48:21;;;;;;;6.22;1.42;;;9.10;99.90;;;8.50;100.00;95296.34;4991777;28;20045;-43
2022/09/28 02:51:13;;;;;;;4.18;1.20;;;9.10;99.90;;;8.51;100.00;95294.59;5000942;28;20036;-44
2022/09/28 02:54:13;;;;;;;4.05;1.15;;;9.10;99.90;;;8.51;100.00;95289.34;4996251;28;20025;-45
2022/09/28 02:56:56;;;;;;;2.40;1.05;;;9.10;99.90;;;8.53;100.00;95290.09;4989765;28;20037;-46
2022/09/28 02:59:40;;;;;;;;;;;9.10;99.90;;;8.51;100.00;95290.19;4990332;28;20044;-44
2022/09/28 03:02:24;;;;;;;4.55;1.00;;;9.10;99.90;;;8.50;100.00;95262.22;4994767;28;21147;-46
2022/09/28 03:05:21;;;;;;;4.10;1.23;;;9.10;99.90;;;8.49;100.00;95273.69;5004687;28;20044;-46
2022/09/28 03:07:59;;;;;;;2.55;1.02;;;9.10;99.90;;;8.54;100.00;95282.13;4990563;28;20065;-45
2022/09/28 03:10:51;;;;;;;2.20;0.70;;;9.20;99.90;;;8.58;100.00;95272.25;4993126;28;20030;-45
2022/09/28 03:13:17;;;;;;;5.28;1.15;;;9.10;99.90;;;8.58;100.00;95274.88;4999802;28;20033;-45
2022/09/28 03:15:43;;;;;;;4.55;1.38;;;9.20;99.90;;;8.57;100.00;95273.19;4991604;28;20408;-42
2022/09/28 03:18:09;;;;;;;6.45;1.20;;;9.20;99.90;;;8.55;100.00;95268.03;4999363;28;20033;-46
2022/09/28 03:20:35;;;;;;;4.63;1.08;;;9.20;99.90;;;8.56;100.00;95266.22;4998901;28;20203;-44
2022/09/28 03:23:01;;;;;;;4.07;0.80;;;9.20;99.90;;;8.55;100.00;95264.56;4999597;28;20621;-45
2022/09/28 03:25:27;;;;;;;4.68;1.17;;;9.20;99.90;;;8.55;100.00;95262.78;4993249;28;20160;-43
2022/09/28 03:27:52;;;;;;;5.57;1.25;;;9.10;99.90;;;8.56;100.00;95259.22;4995897;28;20095;-45
2022/09/28 03:30:18;;;;;;;3.47;0.85;;;9.20;99.90;;;8.48;100.00;95258.84;4990841;28;20022;-45
2022/09/28 03:32:44;;;;;;;5.72;1.20;;;9.20;99.90;;;8.51;100.00;95255.19;4996876;28;20992;-44
2022/09/28 03:35:10;;;;;;;4.28;0.95;;;9.20;99.90;;;8.55;100.00;95269.81;4995580;28;20402;-44
2022/09/28 03:37:36;;;;;;;4.93;0.90;;;9.20;99.90;;;8.56;100.00;95274.09;5001876;28;20029;-45
2022/09/28 03:40:03;;;;;;;3.65;1.08;;;9.20;99.90;;;8.57;100.00;95266.13;5005052;28;20679;-45
2022/09/28 03:42:28;;;;;;;3.63;0.80;;;9.20;99.90;;;8.60;100.00;95267.75;4995862;28;20121;-43
2022/09/28 03:44:54;;;;;;;3.58;1.20;;;9.20;99.90;;;8.65;100.00;95277.94;4997382;28;20542;-46
2022/09/28 03:47:20;;;;;;;4.68;0.90;;;9.20;99.90;;;8.62;100.00;95281.63;5001737;28;20037;-44
2022/09/28 03:49:46;;;;;;;2.53;1.08;;;9.20;99.90;;;8.66;100.00;95285.75;5002260;28;20061;-46
2022/09/28 03:52:13;;;;;;;5.03;0.80;;;9.20;99.90;;;8.58;100.00;95291.47;4995834;28;20176;-46
2022/09/28 03:54:39;;;;;;;4.55;1.15;;;9.20;99.90;;;8.57;100.00;95304.72;5002528;28;20048;-43
2022/09/28 03:57:05;;;;;;;3.78;0.85;;;9.20;99.90;;;8.56;100.00;95303.88;4996786;28;20493;-44
2022/09/28 03:59:30;;;;;;;4.63;1.08;;;9.20;99.90;;;8.57;100.00;95297.66;4998508;28;20214;-45
2022/09/28 04:01:56;;;;;;;7.38;1.15;;;9.20;99.90;;;8.57;100.00;95294.19;5007865;28;20032;-44
2022/09/28 04:04:22;;;;;;;2.30;0.85;;;9.20;99.90;;;8.42;100.00;95269.75;5000209;28;20100;-42
2022/09/28 04:06:48;;;;;;;4.63;0.70;;;9.20;99.90;;;8.52;100.00;95286.59;4997463;28;20479;-46
2022/09/28 04:09:15;;;;;;;3.50;0.88;;;9.10;99.90;;;8.50;100.00;95298.97;4997618;28;20051;-43
2022/09/28 04:11:41;;;;;;;5.03;0.80;;;9.10;99.90;;;8.41;100.00;95297.72;5006543;28;20407;-42
2022/09/28 04:14:06;;;;;;;2.25;0.70;;;9.00;99.90;;;8.26;100.00;95303.94;5000941;28;20037;-45
2022/09/28 04:16:32;;;;;;;3.05;0.80;;;8.90;99.90;;;8.18;100.00;95290.44;4990294;28;20068;-44
2022/09/28 04:18:58;;;;;;;2.05;0.70;;;8.90;99.90;;;8.19;100.00;95298.22;4999248;28;20037;-43
2022/09/28 04:21:24;;;;;;;1.65;0.65;;;8.90;99.90;;;8.18;100.00;95300.94;5002686;28;20589;-45
2022/09/28 04:23:50;;;;;;;7.70;1.30;;;8.80;99.90;;;8.15;100.00;95291.47;5003384;28;20186;-43
2022/09/28 04:26:23;;;;;;;0.80;0.50;;;8.80;99.90;;;8.15;100.00;95295.91;5005577;28;20037;-45
2022/09/28 04:31:45;;;;;;;0.70;0.47;;;8.80;99.90;;;8.05;100.00;95295.59;4992321;28;20045;-44
2022/09/28 04:34:16;;;;;;;5.43;0.80;;;8.70;99.90;;;8.03;100.00;95292.22;5000248;28;20032;-42
2022/09/28 04:36:45;;;;;;;5.68;1.00;;;8.70;99.90;;;7.81;100.00;95269.88;5000524;28;20617;-45
2022/09/28 04:39:13;;;;;;;7.97;0.68;;;8.70;99.90;;;7.99;100.00;95296.81;4995855;28;20324;-42
2022/09/28 04:41:39;;;;;;;10.82;1.00;;;8.60;99.90;;;7.99;100.00;95301.22;4999043;28;20063;-42
2022/09/28 04:44:06;;;;;;;3.58;1.00;;;8.60;99.90;;;7.91;100.00;95301.66;4998591;28;20028;-46
2022/09/28 04:46:32;;;;;;;2.92;0.60;;;8.60;99.90;;;7.93;100.00;95298.94;5001116;28;20044;-45
2022/09/28 04:48:57;;;;;;;5.05;0.90;;;8.60;99.90;;;7.91;100.00;95301.66;4987085;28;20586;-42
2022/09/28 04:51:23;;;;;;;3.35;0.80;;;8.60;99.90;;;7.89;100.00;95302.69;5006817;28;20363;-43
2022/09/28 04:53:49;;;;;;;2.42;0.65;;;8.50;99.90;;;7.74;100.00;95286.09;5007581;28;20029;-45
2022/09/28 04:56:17;;;;;;;1.40;0.55;;;8.50;99.90;;;7.86;100.00;95310.75;5003914;28;20034;-44
2022/09/28 04:58:43;;;;;;;2.28;0.70;;;8.50;99.90;;;7.79;100.00;95316.38;5004758;28;20060;-46
2022/09/28 05:01:15;;;;;;;1.98;0.70;;;8.50;99.90;;;7.81;100.00;95314.50;5002356;28;20687;-42
2022/09/28 05:03:42;;;;;;;2.20;0.90;;;8.50;99.90;;;7.80;100.00;95310.16;5006628;28;20033;-42
2022/09/28 05:06:08;;;;;;;2.20;0.85;;;8.40;99.90;;;7.73;100.00;95295.72;5005862;28;20120;-41
2022/09/28 05:08:34;;;;;;;2.45;1.17;;;8.40;99.90;;;7.78;100.00;95298.09;5000830;28;20045;-42
2022/09/28 05:11:04;;;;;;;7.60;0.88;;;8.40;99.90;;;7.78;100.00;95303.34;5005560;28;20144;-46
2022/09/28 05:13:31;;;;;;;19.77;1.95;;;8.40;99.90;;;7.76;100.00;95306.06;5005767;28;20029;-44
2022/09/28 05:15:58;;;;;;;2.25;0.70;;;8.40;99.90;;;7.78;100.00;95303.34;5006749;28;20109;-45
2022/09/28 05:18:24;;;;;;;4.28;0.90;;;8.40;99.90;;;7.79;100.00;95300.63;5007379;28;20386;-44
2022/09/28 05:20:50;;;;;;;2.22;0.70;;;8.40;99.90;;;7.76;100.00;95295.56;5008927;28;20065;-42
2022/09/28 05:23:17;;;;;;;6.90;1.10;;;8.40;99.90;;;7.77;100.00;95312.13;5008624;28;20159;-43
2022/09/28 05:25:46;;;;;;;1.27;0.80;;;8.40;99.90;;;7.75;100.00;95314.00;5004154;28;20068;-42
2022/09/28 05:28:12;;;;;;;4.07;1.17;;;8.40;99.90;;;7.76;100.00;95316.53;5006331;28;20533;-50
2022/09/28 05:30:37;;;;;;;5.13;0.98;;;8.40;99.90;;;7.76;100.00;95319.16;5006417;28;20045;-43
2022/09/28 05:33:04;;;;;;;1.48;1.00;;;8.40;99.90;;;7.72;100.00;95315.03;5005994;28;20132;-46
2022/09/28 05:35:30;;;;;;;2.33;1.00;;;8.40;99.90;;;7.70;100.00;95314.31;5007516;28;20052;-43
2022/09/28 05:38:01;;;;;;;8.93;1.35;;;8.40;99.90;;;7.70;100.00;95311.69;4993557;28;20507;-43
2022/09/28 05:40:27;;;;;;;3.30;1.00;;;8.40;99.90;;;7.72;100.00;95308.97;5001581;28;20545;-44
2022/09/28 05:42:59;;;;;;;2.63;1.17;;;8.40;99.90;;;7.68;100.00;95305.69;4998927;28;20508;-43
2022/09/28 05:45:25;;;;;;;3.28;1.60;;;8.40;99.90;;;7.64;100.00;95312.03;5006950;28;20547;-43
2022/09/28 05:47:50;;;;;;;3.83;1.77;;;8.40;99.90;;;7.69;100.00;95325.72;5004521;28;20052;-44
2022/09/28 05:50:16;;;;;;;5.10;1.25;;;8.40;99.90;;;7.68;100.00;95326.66;5003947;28;20037;-45
2022/09/28 05:52:43;;;;;;;2.67;1.05;;;8.40;99.90;;;7.66;100.00;95325.88;5001808;28;20032;-41
2022/09/28 05:55:09;;;;;;;5.72;1.20;;;8.30;99.90;;;7.65;100.00;95322.44;5007299;28;20060;-44
2022/09/28 05:57:35;;;;;;;2.10;1.02;;;8.30;99.90;;;7.63;100.00;95331.34;5007076;28;20036;-43
2022/09/28 06:00:07;;;;;;;3.72;1.40;;;8.30;99.90;;;7.67;100.00;95330.22;5003837;28;20042;-45
2022/09/28 06:02:34;;;;;;;1.52;0.95;;;8.30;99.90;;;7.69;100.00;95338.00;5005984;28;20029;-43
2022/09/28 06:05:00;;;;;;;4.05;1.30;;;8.40;99.90;;;7.71;100.00;95338.75;5006048;28;20052;-41
2022/09/28 06:07:25;;;;;;;5.05;1.50;;;8.40;99.90;;;7.71;100.00;95334.34;5009716;28;20033;-44
2022/09/28 06:09:51;;;;;;;1.98;1.27;;;8.40;99.90;;;7.73;100.00;95337.72;5009379;28;20480;-41
2022/09/28 06:12:18;;;;;;;2.20;1.20;;;8.40;99.90;;;7.68;100.00;95331.03;5000057;28;20454;-43
2022/09/28 06:14:44;;;;;;;12.57;1.60;;;8.40;99.90;;;7.74;100.00;95333.31;5005939;28;20056;-42
2022/09/28 06:17:10;;;;;;;5.82;1.50;;;8.40;99.90;;;7.79;100.00;95336.53;5006931;28;20266;-44
2022/09/28 06:19:35;;;;;;;2.03;1.40;;;8.40;99.90;;;7.83;100.00;95338.03;5004089;28;20487;-41
2022/09/28 06:22:01;;;;;;;2.65;1.27;;;8.50;99.90;;;7.89;100.00;95342.06;5007033;28;20033;-44
2022/09/28 06:24:27;;;;;;;2.00;1.30;;;8.50;99.90;;;7.88;100.00;95350.84;5002609;28;20080;-42
2022/09/28 06:26:52;;;;;;;3.03;1.60;;;8.50;99.90;;;7.89;100.00;95345.53;5006024;28;20052;-43
2022/09/28 06:29:18;;;;;;;4.53;1.80;;;8.50;99.90;;;7.90;100.00;95354.25;5004431;28;20037;-42
2022/09/28 06:31:46;;;;;;;5.57;1.52;;;8.50;99.90;;;7.94;100.00;95350.50;5005643;28;20042;-44
2022/09/28 06:34:12;;;;;;;8.82;4.95;;;8.60;99.90;;;7.98;100.00;95358.09;5003835;28;20287;-42
2022/09/28 06:36:38;;;;;;;6.40;1.70;;;8.60;99.90;;;7.99;100.00;95356.34;5007765;28;20033;-41
2022/09/28 06:39:05;;;;;;;2.72;1.30;;;8.60;99.90;;;8.00;100.00;95361.50;5006250;28;20037;-43
2022/09/28 06:41:31;;;;;;;2.08;1.20;;;8.60;99.90;;;8.02;100.00;95359.63;5002128;28;20041;-42
2022/09/28 06:43:56;;;;;;;5.07;1.85;;;8.70;99.90;;;8.06;100.00;95370.78;5006381;28;20030;-42
2022/09/28 06:46:22;;;;;;;15.75;5.32;;;8.70;99.90;;;8.11;100.00;95363.50;5000957;28;20052;-43
2022/09/28 06:48:48;;;;;;;3.83;1.70;;;8.70;99.90;;;8.13;100.00;95364.25;5000246;28;22577;-46
2022/09/28 06:51:15;;;;;;;2.83;1.20;;;8.80;99.90;;;8.18;100.00;95366.56;5004556;28;20034;-43
2022/09/28 06:53:40;;;;;;;3.20;1.52;;;8.80;99.90;;;8.24;100.00;95366.22;5003270;28;20056;-45
2022/09/28 06:56:09;;;;;;;7.50;1.52;;;8.90;99.90;;;8.29;100.00;95376.44;5003653;28;20033;-45
2022/09/28 06:58:35;;;;;;;2.40;1.45;;;8.90;99.90;;;8.29;100.00;95386.94;5007921;28;20475;-41
2022/09/28 07:01:01;;;;;;;3.72;1.60;;;8.90;99.90;;;8.20;100.00;95383.06;5003538;28;20069;-43
2022/09/28 07:03:27;;;;;;;7.20;1.65;;;8.90;99.90;;;8.18;100.00;95393.69;5005524;28;20033;-46
2022/09/28 07:05:54;;;;;;;4.07;1.63;;;8.80;99.90;;;8.21;100.00;95396.13;5008478;28;20451;-45
2022/09/28 07:08:23;;;;;;;3.40;1.63;;;8.90;99.90;;;8.27;100.00;95402.78;5002476;28;20488;-45
2022/09/28 07:10:56;;;;;;;12.27;2.22;;;8.90;99.90;;;8.34;100.00;95405.88;5007401;28;20034;-43
2022/09/28 07:13:25;;;;;;;3.83;2.25;;;9.00;99.90;;;8.38;100.00;95403.00;5001828;28;21388;-47
2022/09/28 07:16:00;;;;;;;4.95;2.03;;;9.00;99.90;;;8.44;100.00;95403.59;4998942;28;20037;-45
2022/09/28 07:18:28;;;;;;;4.03;1.92;;;9.00;99.90;;;8.46;100.00;95409.59;5008015;28;20067;-43
2022/09/28 07:20:58;;;;;;;2.80;1.77;;;9.10;99.90;;;8.51;100.00;95423.31;5004168;28;20033;-43
2022/09/28 07:23:31;;;;;;;4.28;2.03;;;9.10;99.90;;;8.63;100.00;95422.53;5000290;28;20368;-45
2022/09/28 07:25:57;;;;;;;8.02;2.10;;;9.20;99.90;;;8.75;100.00;95424.44;5001112;28;20092;-43
2022/09/28 07:28:23;;;;;;;4.75;1.95;;;9.30;99.90;;;8.78;100.00;95421.63;5007689;28;20037;-42
2022/09/28 07:30:49;;;;;;;4.13;2.08;;;9.40;99.90;;;8.86;100.00;95426.41;4999984;28;20034;-43
2022/09/28 07:33:15;;;;;;;4.45;2.30;;;9.50;99.90;;;8.93;100.00;95432.97;5003558;28;20036;-43
2022/09/28 07:35:52;;;;;;;5.25;2.33;;;9.50;99.90;;;9.01;100.00;95437.78;5006338;28;20026;-43
2022/09/28 07:38:18;;;;;;;6.05;2.05;;;9.60;99.90;;;8.95;100.00;95432.88;5032571;22;20048;-50
2022/09/28 07:43:28;;;;;;;7.32;1.92;;;9.70;99.90;;;9.14;100.00;95453.63;5047158;28;20540;-52
2022/09/28 07:45:54;;;;;;;5.75;2.35;;;9.70;99.90;;;9.05;100.00;95423.47;5042560;28;20037;-51
2022/09/28 07:48:21;;;;;;;6.28;2.00;;;9.80;99.90;;;9.21;100.00;95449.66;5058004;28;20067;-51
2022/09/28 07:50:56;;;;;;;3.72;1.95;;;9.80;99.90;;;9.30;100.00;95453.50;5036304;28;20037;-49
2022/09/28 07:53:24;;;;;;;6.95;2.10;;;9.90;99.90;;;9.32;100.00;95455.09;5032809;28;20105;-50
2022/09/28 07:56:04;;;;;;;4.07;1.77;;;9.90;99.90;;;9.26;100.00;95455.50;5032489;28;20040;-50
2022/09/28 07:58:31;;;;;;;5.50;1.67;;;9.90;99.90;;;9.34;100.00;95465.53;5034926;28;20486;-51
2022/09/28 08:00:59;;;;;;;4.55;1.95;;;10.00;99.90;;;9.49;100.00;95467.19;5032712;28;20451;-51
2022/09/28 08:03:26;;;;;;;7.90;1.80;;;10.00;99.90;;;9.53;100.00;95463.41;5034579;28;21222;-48
2022/09/28 08:05:58;;;;;;;8.65;1.75;;;10.10;99.90;;;9.58;100.00;95449.94;5032769;28;20025;-50
2022/09/28 08:08:24;;;;;;;7.05;1.67;;;10.20;99.90;;;9.63;100.00;95465.47;5033353;28;20037;-51
2022/09/28 08:10:51;;;;;;;3.90;1.73;;;10.20;99.90;;;9.70;100.00;95466.75;5033603;28;20029;-47
2022/09/28 08:13:18;;;;;;;3.83;1.90;;;10.30;99.90;;;9.82;100.00;95473.03;5031624;28;20053;-49
2022/09/28 08:15:44;;;;;;;3.35;1.33;;;10.40;99.90;;;9.74;100.00;95473.50;5031974;28;20408;-50
2022/09/28 08:18:10;;;;;;;2.67;1.45;;;10.40;99.90;;;9.78;100.00;95487.31;5029623;28;20029;-52
2022/09/28 08:23:22;;;;;;;5.75;1.70;;;10.50;99.90;;;9.93;100.00;95488.97;5033976;28;20076;-51
2022/09/28 08:25:49;;;;;;;3.97;1.70;;;10.60;99.90;;;9.89;100.00;95482.22;5034552;28;20036;-50
2022/09/28 08:28:16;;;;;;;2.80;1.52;;;10.60;99.90;;;9.93;100.00;95495.06;5033722;28;20336;-49
2022/09/28 08:30:44;;;;;;;4.90;1.55;;;10.60;99.90;;;10.06;100.00;95491.63;5032363;28;20029;-52
2022/09/28 08:33:11;;;;;;;5.25;1.98;;;10.70;99.90;;;10.23;100.00;95501.91;5034447;28;20029;-49
2022/09/28 08:35:37;;;;;;;6.05;1.70;;;10.90;99.90;;;10.25;100.00;95499.19;5032114;28;20090;-47
2022/09/28 08:38:03;;;;;;;2.97;1.38;;;11.00;99.90;;;10.34;100.00;95490.72;5031081;28;20494;-50
2022/09/28 08:40:58;;;;;;;3.20;1.45;;;11.10;99.90;;;10.39;100.00;95506.19;5035338;28;20044;-53
2022/09/28 08:43:45;;;;;;;5.47;1.55;;;11.20;99.90;;;10.52;100.00;95500.97;5023359;28;20068;-53
2022/09/28 08:46:12;;;;;;;3.35;1.95;;;11.30;99.90;;;10.66;100.00;95511.44;5032637;28;20347;-51
2022/09/28 08:48:53;;;;;;;3.28;1.52;;;11.40;99.90;;;10.81;100.00;95512.19;5050685;28;21528;-53
2022/09/28 08:51:22;;;;;;;6.10;1.67;;;11.50;99.90;;;10.92;100.00;95517.56;5034239;28;20136;-50
2022/09/28 08:54:06;;;;;;;4.47;1.50;;;11.60;99.90;;;10.58;100.00;95526.91;5029846;28;20033;-51
2022/09/28 08:56:43;;;;;;;5.30;1.40;;;11.50;99.90;;;10.46;100.00;95523.28;5047985;28;20028;-49
2022/09/28 08:59:18;;;;;;;4.50;1.60;;;11.30;99.90;;;10.44;100.00;95531.28;5034681;28;20908;-49
2022/09/28 09:01:55;;;;;;;3.22;1.52;;;11.20;99.90;;;10.55;100.00;95533.25;5033971;28;20497;-49
2022/09/28 09:04:20;;;;;;;7.45;1.70;;;11.30;99.90;;;10.54;100.00;95530.69;5048515;28;20052;-51
2022/09/28 09:07:10;;;;;;;2.83;1.40;;;11.40;99.90;;;10.67;100.00;95531.56;5030994;28;20490;-50
2022/09/28 09:10:17;;;;;;;3.72;1.45;;;11.40;99.90;;;10.77;100.00;95537.06;5034645;28;20041;-48
2022/09/28 09:13:40;;;;;;;3.53;1.88;;;11.50;99.90;;;10.76;100.00;95541.47;5032455;28;20117;-52
2022/09/28 09:16:24;;;;;;;4.85;1.23;;;11.50;99.90;;;10.76;100.00;95538.84;5004450;28;20302;-49
2022/09/28 09:18:55;;;;;;;5.07;1.40;;;11.50;99.90;;;10.77;100.00;95545.81;5046927;28;20075;-49
2022/09/28 09:21:40;;;;;;;5.85;1.45;;;11.50;99.90;;;10.92;100.00;95551.00;5032217;28;20036;-51
2022/09/28 09:24:32;;;;;;;7.38;1.63;;;11.60;99.90;;;10.99;100.00;95554.91;5033102;28;20145;-49
2022/09/28 09:27:27;;;;;;;3.33;1.42;;;11.80;99.90;;;11.09;100.00;95563.91;5030884;28;20079;-49
2022/09/28 09:30:10;;;;;;;4.75;1.40;;;11.80;99.90;;;11.21;100.00;95568.31;5045804;28;20148;-49
2022/09/28 09:33:32;;;;;;;7.38;1.50;;;11.90;99.90;;;11.23;100.00;95565.56;5031549;28;20037;-48
2022/09/28 09:36:10;;;;;;;4.50;1.33;;;12.00;99.90;;;11.39;100.00;95565.34;4991419;28;20030;-47
2022/09/28 09:39:01;;;;;;;3.95;1.42;;;12.10;99.90;;;11.51;100.00;95569.78;5026678;28;20489;-51
2022/09/28 09:41:54;;;;;;;5.35;1.50;;;12.20;99.90;;;11.73;100.00;95578.84;5030973;28;20047;-50
2022/09/28 09:44:51;;;;;;;3.65;1.48;;;12.30;99.90;;;11.70;100.00;95579.03;5034640;28;20106;-53
2022/09/28 09:47:32;;;;;;;2.67;1.20;;;12.40;99.90;;;11.73;100.00;95582.31;5031783;28;20029;-54
2022/09/28 09:50:11;;;;;;;5.40;1.75;;;12.40;99.90;;;11.76;100.00;95581.28;5033075;28;20117;-53
2022/09/28 09:52:54;;;;;;;8.48;1.60;;;12.40;99.90;;;11.60;100.00;95584.13;5030031;28;20033;-50
2022/09/28 09:55:31;;;;;;;4.63;1.60;;;12.40;99.90;;;11.69;100.00;95582.66;5029277;28;20087;-51
2022/09/28 09:58:09;;;;;;;2.70;1.40;;;12.40;99.90;;;11.77;100.00;95588.22;5049054;28;20095;-50
2022/09/28 10:00:39;;;;;;;2.90;1.17;;;12.50;99.90;;;11.83;100.00;95585.16;5026478;28;20032;-50
2022/09/28 10:03:05;;;;;;;1.90;1.30;;;12.50;99.90;;;11.94;100.00;95587.06;5046847;28;20044;-52
2022/09/28 10:05:33;;;;;;;8.52;1.75;;;12.50;99.90;;;11.65;100.00;95588.13;5047244;28;20037;-50
2022/09/28 10:08:10;;;;;;;5.45;1.80;;;12.50;99.90;;;11.50;100.00;95583.91;5035322;28;20501;-52
2022/09/28 10:10:50;;;;;;;5.57;1.70;;;12.30;99.90;;;11.31;100.00;95587.00;5034750;28;20037;-52
2022/09/28 10:13:16;;;;;;;2.72;1.40;;;12.20;99.90;;;11.34;100.00;95583.28;5031639;28;20029;-50
2022/09/28 10:15:42;;;;;;;3.00;1.52;;;12.10;99.90;;;11.36;100.00;95584.03;5032514;28;20032;-50
2022/09/28 10:18:14;;;;;;;4.50;1.83;;;12.10;99.90;;;11.32;100.00;95586.03;5031932;28;20089;-49
2022/09/28 10:20:43;;;;;;;4.43;1.88;;;12.10;99.90;;;11.32;100.00;95580.75;5028834;28;20102;-51
2022/09/28 10:23:32;;;;;;;4.60;1.60;;;12.00;99.90;;;11.37;100.00;95567.25;5030023;28;20033;-49
2022/09/28 10:26:15;;;;;;;3.58;1.73;;;12.10;99.90;;;11.49;100.00;95574.34;5030026;28;20040;-48
2022/09/28 10:28:51;;;;;;;;;;;12.10;99.90;;;11.28;100.00;95572.22;5047368;28;20697;-49
2022/09/28 10:31:47;;;;;;;2.80;1.40;;;12.00;99.90;;;11.34;100.00;95586.81;5033463;28;19920;-50
2022/09/28 10:34:18;;;;;;;5.47;1.92;;;12.10;99.90;;;11.31;100.00;95571.16;5029563;28;20473;-50
2022/09/28 10:36:57;;;;;;;2.90;1.50;;;12.10;99.90;;;11.13;100.00;95578.56;5032130;28;20177;-49
2022/09/28 10:39:31;;;;;;;4.10;1.65;;;11.90;99.90;;;11.20;100.00;95581.63;5035093;28;20052;-52
2022/09/28 10:42:02;;;;;;;4.38;1.73;;;11.90;99.90;;;11.14;100.00;95580.22;5045694;28;20763;-52
2022/09/28 10:44:32;;;;;;;5.07;1.65;;;11.90;99.90;;;11.20;100.00;95585.09;5035617;28;20052;-51
2022/09/28 10:47:04;;;;;;;2.65;1.42;;;12.00;99.90;;;11.30;100.00;95585.31;5013296;28;20043;-50
2022/09/28 10:49:40;;;;;;;4.82;1.40;;;12.00;99.90;;;11.39;100.00;95578.56;5033472;28;20033;-49
2022/09/28 10:52:35;;;;;;;5.10;1.45;;;12.10;99.90;;;11.46;100.00;95583.28;5030664;28;20090;-49